sensor_id;sensor_type;location;lat;lon;timestamp;pressure;altitude;pressure_sealevel;temperature;humidity
7730;BME280;3908;52.310;7.230;2022-12-10T00:01:18;51366.09;;;-145.83;100.00
7730;BME280;3908;52.310;7.230;2022-12-10T00:04:05;51383.72;;;-145.83;100.00
7730;BME280;3908;52.310;7.230;2022-12-10T00:06:52;51393.50;;;-145.83;100.00
7730;BME280;3908;52.310;7.230;2022-12-10T00:09:39;51342.63;;;-145.83;100.00
7730;BME280;3908;52.310;7.230;2022-12-10T00:12:26;51373.94;;;-145.83;100.00
7730;BME280;3908;52.310;7.230;2022-12-10T00:15:14;51342.63;;;-145.83;100.00
7730;BME280;3908;52.310;7.230;2022-12-10T00:18:03;51323.06;;;-145.83;100.00
7730;BME280;3908;52.310;7.230;2022-12-10T00:20:50;51348.50;;;-145.83;100.00
7730;BME280;3908;52.310;7.230;2022-12-10T00:23:37;51299.59;;;-145.83;100.00
7730;BME280;3908;52.310;7.230;2022-12-10T00:26:26;51344.59;;;-145.83;100.00
7730;BME280;3908;52.310;7.230;2022-12-10T00:29:14;51352.41;;;-145.83;100.00
7730;BME280;3908;52.310;7.230;2022-12-10T00:32:00;51358.28;;;-145.83;100.00
7730;BME280;3908;52.310;7.230;2022-12-10T00:34:52;51387.63;;;-145.83;100.00
7730;BME280;3908;52.310;7.230;2022-12-10T00:37:39;51375.88;;;-145.83;100.00
7730;BME280;3908;52.310;7.230;2022-12-10T00:40:26;51330.91;;;-145.83;100.00
7730;BME280;3908;52.310;7.230;2022-12-10T00:43:13;51319.16;;;-145.83;100.00
7730;BME280;3908;52.310;7.230;2022-12-10T00:46:01;51344.59;;;-145.83;100.00
7730;BME280;3908;52.310;7.230;2022-12-10T00:48:48;51370.03;;;-145.83;100.00
7730;BME280;3908;52.310;7.230;2022-12-10T00:51:37;51368.06;;;-145.83;100.00
7730;BME280;3908;52.310;7.230;2022-12-10T00:54:24;51354.38;;;-145.83;100.00
7730;BME280;3908;52.310;7.230;2022-12-10T00:57:11;51389.59;;;-145.83;100.00
7730;BME280;3908;52.310;7.230;2022-12-10T00:59:58;51358.28;;;-145.83;100.00
7730;BME280;3908;52.310;7.230;2022-12-10T01:02:45;51348.50;;;-145.83;100.00
7730;BME280;3908;52.310;7.230;2022-12-10T01:05:32;51317.19;;;-145.83;100.00
7730;BME280;3908;52.310;7.230;2022-12-10T01:08:21;51362.19;;;-145.83;100.00
7730;BME280;3908;52.310;7.230;2022-12-10T01:11:09;51356.31;;;-145.83;100.00
7730;BME280;3908;52.310;7.230;2022-12-10T01:13:56;51328.94;;;-145.83;100.00
7730;BME280;3908;52.310;7.230;2022-12-10T01:16:44;51356.31;;;-145.83;100.00
7730;BME280;3908;52.310;7.230;2022-12-10T01:19:32;51348.50;;;-145.83;100.00
7730;BME280;3908;52.310;7.230;2022-12-10T01:22:20;51325.03;;;-145.83;100.00
7730;BME280;3908;52.310;7.230;2022-12-10T01:25:09;51330.91;;;-145.83;100.00
7730;BME280;3908;52.310;7.230;2022-12-10T01:27:56;51350.47;;;-145.83;100.00
7730;BME280;3908;52.310;7.230;2022-12-10T01:30:43;51336.75;;;-145.83;100.00
7730;BME280;3908;52.310;7.230;2022-12-10T01:33:31;51346.53;;;-145.83;100.00
7730;BME280;3908;52.310;7.230;2022-12-10T01:36:20;51317.19;;;-145.83;100.00
7730;BME280;3908;52.310;7.230;2022-12-10T01:39:10;51346.53;;;-145.83;100.00
7730;BME280;3908;52.310;7.230;2022-12-10T01:41:59;51352.41;;;-145.83;100.00
7730;BME280;3908;52.310;7.230;2022-12-10T01:45:05;51356.31;;;-145.83;100.00
7730;BME280;3908;52.310;7.230;2022-12-10T01:47:52;51377.84;;;-145.83;100.00
7730;BME280;3908;52.310;7.230;2022-12-10T01:50:39;51328.94;;;-145.83;100.00
7730;BME280;3908;52.310;7.230;2022-12-10T01:53:26;51344.59;;;-145.83;100.00
7730;BME280;3908;52.310;7.230;2022-12-10T01:56:16;51299.59;;;-145.83;100.00
7730;BME280;3908;52.310;7.230;2022-12-10T01:59:05;51342.63;;;-145.83;100.00
7730;BME280;3908;52.310;7.230;2022-12-10T02:02:04;51352.41;;;-145.83;100.00
7730;BME280;3908;52.310;7.230;2022-12-10T02:05:03;51330.91;;;-145.83;100.00
7730;BME280;3908;52.310;7.230;2022-12-10T02:08:02;51325.03;;;-145.83;100.00
7730;BME280;3908;52.310;7.230;2022-12-10T02:10:59;51360.22;;;-145.83;100.00
7730;BME280;3908;52.310;7.230;2022-12-10T02:13:52;51326.97;;;-145.83;100.00
7730;BME280;3908;52.310;7.230;2022-12-10T02:16:48;51330.91;;;-145.83;100.00
7730;BME280;3908;52.310;7.230;2022-12-10T02:19:54;51346.53;;;-145.83;100.00
7730;BME280;3908;52.310;7.230;2022-12-10T02:22:50;51379.81;;;-145.83;100.00
7730;BME280;3908;52.310;7.230;2022-12-10T02:25:43;51348.50;;;-145.83;100.00
7730;BME280;3908;52.310;7.230;2022-12-10T02:28:38;51350.47;;;-145.83;100.00
7730;BME280;3908;52.310;7.230;2022-12-10T02:31:32;51366.09;;;-145.83;100.00
7730;BME280;3908;52.310;7.230;2022-12-10T02:34:23;51323.06;;;-145.83;100.00
7730;BME280;3908;52.310;7.230;2022-12-10T02:37:19;51344.59;;;-145.83;100.00
7730;BME280;3908;52.310;7.230;2022-12-10T02:40:11;51362.19;;;-145.83;100.00
7730;BME280;3908;52.310;7.230;2022-12-10T02:42:59;51350.47;;;-145.83;100.00
7730;BME280;3908;52.310;7.230;2022-12-10T02:45:47;51371.97;;;-145.83;100.00
7730;BME280;3908;52.310;7.230;2022-12-10T02:48:37;51360.22;;;-145.83;100.00
7730;BME280;3908;52.310;7.230;2022-12-10T02:51:26;51370.03;;;-145.83;100.00
7730;BME280;3908;52.310;7.230;2022-12-10T02:54:37;51332.84;;;-145.83;100.00
7730;BME280;3908;52.310;7.230;2022-12-10T02:57:32;51350.47;;;-145.83;100.00
7730;BME280;3908;52.310;7.230;2022-12-10T03:00:23;51342.63;;;-145.83;100.00
7730;BME280;3908;52.310;7.230;2022-12-10T03:03:33;51325.03;;;-145.83;100.00
7730;BME280;3908;52.310;7.230;2022-12-10T03:06:27;51350.47;;;-145.83;100.00
7730;BME280;3908;52.310;7.230;2022-12-10T03:09:22;51328.94;;;-145.83;100.00
7730;BME280;3908;52.310;7.230;2022-12-10T03:12:16;51346.53;;;-145.83;100.00
7730;BME280;3908;52.310;7.230;2022-12-10T03:15:10;51350.47;;;-145.83;100.00
7730;BME280;3908;52.310;7.230;2022-12-10T03:17:59;51338.72;;;-145.83;100.00
7730;BME280;3908;52.310;7.230;2022-12-10T03:20:48;51360.22;;;-145.83;100.00
7730;BME280;3908;52.310;7.230;2022-12-10T03:23:41;51311.31;;;-145.83;100.00
7730;BME280;3908;52.310;7.230;2022-12-10T03:26:30;51336.75;;;-145.83;100.00
7730;BME280;3908;52.310;7.230;2022-12-10T03:29:20;51317.19;;;-145.83;100.00
7730;BME280;3908;52.310;7.230;2022-12-10T03:32:10;51358.28;;;-145.83;100.00
7730;BME280;3908;52.310;7.230;2022-12-10T03:34:58;51330.91;;;-145.83;100.00
7730;BME280;3908;52.310;7.230;2022-12-10T03:37:46;51319.16;;;-145.83;100.00
7730;BME280;3908;52.310;7.230;2022-12-10T03:40:36;51325.03;;;-145.83;100.00
7730;BME280;3908;52.310;7.230;2022-12-10T03:43:23;51350.47;;;-145.83;100.00
7730;BME280;3908;52.310;7.230;2022-12-10T03:46:10;51326.97;;;-145.83;100.00
7730;BME280;3908;52.310;7.230;2022-12-10T03:48:58;51340.69;;;-145.83;100.00
7730;BME280;3908;52.310;7.230;2022-12-10T03:51:46;51368.06;;;-145.83;100.00
7730;BME280;3908;52.310;7.230;2022-12-10T03:54:33;51338.72;;;-145.83;100.00
7730;BME280;3908;52.310;7.230;2022-12-10T03:57:21;51362.19;;;-145.83;100.00
7730;BME280;3908;52.310;7.230;2022-12-10T04:00:09;51321.09;;;-145.83;100.00
7730;BME280;3908;52.310;7.230;2022-12-10T04:02:57;51334.81;;;-145.83;100.00
7730;BME280;3908;52.310;7.230;2022-12-10T04:05:44;51325.03;;;-145.83;100.00
7730;BME280;3908;52.310;7.230;2022-12-10T04:08:31;51317.19;;;-145.83;100.00
7730;BME280;3908;52.310;7.230;2022-12-10T04:11:18;51356.31;;;-145.83;100.00
7730;BME280;3908;52.310;7.230;2022-12-10T04:14:07;51344.59;;;-145.83;100.00
7730;BME280;3908;52.310;7.230;2022-12-10T04:17:12;51340.69;;;-145.83;100.00
7730;BME280;3908;52.310;7.230;2022-12-10T04:19:59;51346.53;;;-145.83;100.00
7730;BME280;3908;52.310;7.230;2022-12-10T04:22:46;51321.09;;;-145.83;100.00
7730;BME280;3908;52.310;7.230;2022-12-10T04:25:58;51340.69;;;-145.83;100.00
7730;BME280;3908;52.310;7.230;2022-12-10T04:29:03;51348.50;;;-145.83;100.00
7730;BME280;3908;52.310;7.230;2022-12-10T04:31:53;51301.53;;;-145.83;100.00
7730;BME280;3908;52.310;7.230;2022-12-10T04:34:41;51330.91;;;-145.83;100.00
7730;BME280;3908;52.310;7.230;2022-12-10T04:37:28;51338.72;;;-145.83;100.00
7730;BME280;3908;52.310;7.230;2022-12-10T04:40:15;51326.97;;;-145.83;100.00
7730;BME280;3908;52.310;7.230;2022-12-10T04:43:03;51326.97;;;-145.83;100.00
7730;BME280;3908;52.310;7.230;2022-12-10T04:45:50;51315.25;;;-145.83;100.00
7730;BME280;3908;52.310;7.230;2022-12-10T04:48:38;51332.84;;;-145.83;100.00
7730;BME280;3908;52.310;7.230;2022-12-10T04:51:25;51334.81;;;-145.83;100.00
7730;BME280;3908;52.310;7.230;2022-12-10T04:54:12;51328.94;;;-145.83;100.00
7730;BME280;3908;52.310;7.230;2022-12-10T04:56:59;51328.94;;;-145.83;100.00
7730;BME280;3908;52.310;7.230;2022-12-10T04:59:46;51338.72;;;-145.83;100.00
7730;BME280;3908;52.310;7.230;2022-12-10T05:02:34;51354.38;;;-145.83;100.00
7730;BME280;3908;52.310;7.230;2022-12-10T05:05:22;51328.94;;;-145.83;100.00
7730;BME280;3908;52.310;7.230;2022-12-10T05:08:09;51326.97;;;-145.83;100.00
7730;BME280;3908;52.310;7.230;2022-12-10T05:11:00;51293.72;;;-145.83;100.00
7730;BME280;3908;52.310;7.230;2022-12-10T05:13:47;51358.28;;;-145.83;100.00
7730;BME280;3908;52.310;7.230;2022-12-10T05:16:34;51323.06;;;-145.83;100.00
7730;BME280;3908;52.310;7.230;2022-12-10T05:19:21;51354.38;;;-145.83;100.00
7730;BME280;3908;52.310;7.230;2022-12-10T05:22:10;51299.59;;;-145.83;100.00
7730;BME280;3908;52.310;7.230;2022-12-10T05:25:14;51323.06;;;-145.83;100.00
7730;BME280;3908;52.310;7.230;2022-12-10T05:28:03;51348.50;;;-145.83;100.00
7730;BME280;3908;52.310;7.230;2022-12-10T05:30:50;51323.06;;;-145.83;100.00
7730;BME280;3908;52.310;7.230;2022-12-10T05:33:37;51326.97;;;-145.83;100.00
7730;BME280;3908;52.310;7.230;2022-12-10T05:36:26;51326.97;;;-145.83;100.00
7730;BME280;3908;52.310;7.230;2022-12-10T05:39:15;51325.03;;;-145.83;100.00
7730;BME280;3908;52.310;7.230;2022-12-10T05:42:02;51311.31;;;-145.83;100.00
7730;BME280;3908;52.310;7.230;2022-12-10T05:44:50;51307.41;;;-145.83;100.00
7730;BME280;3908;52.310;7.230;2022-12-10T05:47:37;51295.69;;;-145.83;100.00
7730;BME280;3908;52.310;7.230;2022-12-10T05:50:24;51346.53;;;-145.83;100.00
7730;BME280;3908;52.310;7.230;2022-12-10T05:53:11;51328.94;;;-145.83;100.00
7730;BME280;3908;52.310;7.230;2022-12-10T05:56:02;51321.09;;;-145.83;100.00
7730;BME280;3908;52.310;7.230;2022-12-10T05:58:52;51325.03;;;-145.83;100.00
7730;BME280;3908;52.310;7.230;2022-12-10T06:01:39;51344.59;;;-145.83;100.00
7730;BME280;3908;52.310;7.230;2022-12-10T06:04:27;51325.03;;;-145.83;100.00
7730;BME280;3908;52.310;7.230;2022-12-10T06:07:14;51348.50;;;-145.83;100.00
7730;BME280;3908;52.310;7.230;2022-12-10T06:10:01;51326.97;;;-145.83;100.00
7730;BME280;3908;52.310;7.230;2022-12-10T06:12:49;51323.06;;;-145.83;100.00
7730;BME280;3908;52.310;7.230;2022-12-10T06:15:39;51336.75;;;-145.83;100.00
7730;BME280;3908;52.310;7.230;2022-12-10T06:18:26;51311.31;;;-145.83;100.00
7730;BME280;3908;52.310;7.230;2022-12-10T06:21:14;51301.53;;;-145.83;100.00
7730;BME280;3908;52.310;7.230;2022-12-10T06:24:02;51309.38;;;-145.83;100.00
7730;BME280;3908;52.310;7.230;2022-12-10T06:26:49;51285.91;;;-145.83;100.00
7730;BME280;3908;52.310;7.230;2022-12-10T06:29:38;51309.38;;;-145.83;100.00
7730;BME280;3908;52.310;7.230;2022-12-10T06:32:25;51334.81;;;-145.83;100.00
7730;BME280;3908;52.310;7.230;2022-12-10T06:35:12;51295.69;;;-145.83;100.00
7730;BME280;3908;52.310;7.230;2022-12-10T06:37:59;51313.28;;;-145.83;100.00
7730;BME280;3908;52.310;7.230;2022-12-10T06:40:46;51311.31;;;-145.83;100.00
7730;BME280;3908;52.310;7.230;2022-12-10T06:43:33;51319.16;;;-145.83;100.00
7730;BME280;3908;52.310;7.230;2022-12-10T06:46:21;51334.81;;;-145.83;100.00
7730;BME280;3908;52.310;7.230;2022-12-10T06:49:08;51305.47;;;-145.83;100.00
7730;BME280;3908;52.310;7.230;2022-12-10T06:51:55;51336.75;;;-145.83;100.00
7730;BME280;3908;52.310;7.230;2022-12-10T06:54:42;51326.97;;;-145.83;100.00
7730;BME280;3908;52.310;7.230;2022-12-10T06:57:29;51276.13;;;-145.83;100.00
7730;BME280;3908;52.310;7.230;2022-12-10T07:00:17;51336.75;;;-145.83;100.00
7730;BME280;3908;52.310;7.230;2022-12-10T07:03:05;51317.19;;;-145.83;100.00
7730;BME280;3908;52.310;7.230;2022-12-10T07:05:52;51315.25;;;-145.83;100.00
7730;BME280;3908;52.310;7.230;2022-12-10T07:08:43;51326.97;;;-145.83;100.00
7730;BME280;3908;52.310;7.230;2022-12-10T07:11:30;51281.97;;;-145.83;100.00
7730;BME280;3908;52.310;7.230;2022-12-10T07:14:17;51307.41;;;-145.83;100.00
7730;BME280;3908;52.310;7.230;2022-12-10T07:17:04;51283.94;;;-145.83;100.00
7730;BME280;3908;52.310;7.230;2022-12-10T07:19:53;51278.06;;;-145.83;100.00
7730;BME280;3908;52.310;7.230;2022-12-10T07:22:40;51303.50;;;-145.83;100.00
7730;BME280;3908;52.310;7.230;2022-12-10T07:25:27;51328.94;;;-145.83;100.00
7730;BME280;3908;52.310;7.230;2022-12-10T07:28:15;51293.72;;;-145.83;100.00
7730;BME280;3908;52.310;7.230;2022-12-10T07:31:03;51297.63;;;-145.83;100.00
7730;BME280;3908;52.310;7.230;2022-12-10T07:33:52;51301.53;;;-145.83;100.00
7730;BME280;3908;52.310;7.230;2022-12-10T07:36:41;51311.31;;;-145.83;100.00
7730;BME280;3908;52.310;7.230;2022-12-10T07:39:28;51295.69;;;-145.83;100.00
7730;BME280;3908;52.310;7.230;2022-12-10T07:42:15;51289.81;;;-145.83;100.00
7730;BME280;3908;52.310;7.230;2022-12-10T07:45:04;51285.91;;;-145.83;100.00
7730;BME280;3908;52.310;7.230;2022-12-10T07:47:51;51311.31;;;-145.83;100.00
7730;BME280;3908;52.310;7.230;2022-12-10T07:50:38;51315.25;;;-145.83;100.00
7730;BME280;3908;52.310;7.230;2022-12-10T07:53:30;51311.31;;;-145.83;100.00
7730;BME280;3908;52.310;7.230;2022-12-10T07:56:17;51289.81;;;-145.83;100.00
7730;BME280;3908;52.310;7.230;2022-12-10T07:59:04;51334.81;;;-145.83;100.00
7730;BME280;3908;52.310;7.230;2022-12-10T08:01:51;51328.94;;;-145.83;100.00
7730;BME280;3908;52.310;7.230;2022-12-10T08:04:38;51307.41;;;-145.83;100.00
7730;BME280;3908;52.310;7.230;2022-12-10T08:07:25;51313.28;;;-145.83;100.00
7730;BME280;3908;52.310;7.230;2022-12-10T08:10:14;51313.28;;;-145.83;100.00
7730;BME280;3908;52.310;7.230;2022-12-10T08:13:01;51332.84;;;-145.83;100.00
7730;BME280;3908;52.310;7.230;2022-12-10T08:15:48;51309.38;;;-145.83;100.00
7730;BME280;3908;52.310;7.230;2022-12-10T08:18:36;51317.19;;;-145.83;100.00
7730;BME280;3908;52.310;7.230;2022-12-10T08:21:25;51323.06;;;-145.83;100.00
7730;BME280;3908;52.310;7.230;2022-12-10T08:24:13;51268.28;;;-145.83;100.00
7730;BME280;3908;52.310;7.230;2022-12-10T08:27:05;51272.22;;;-145.83;100.00
7730;BME280;3908;52.310;7.230;2022-12-10T08:29:52;51340.69;;;-145.83;100.00
7730;BME280;3908;52.310;7.230;2022-12-10T08:32:39;51270.25;;;-145.83;100.00
7730;BME280;3908;52.310;7.230;2022-12-10T08:35:26;51321.09;;;-145.83;100.00
7730;BME280;3908;52.310;7.230;2022-12-10T08:38:13;51305.47;;;-145.83;100.00
7730;BME280;3908;52.310;7.230;2022-12-10T08:41:05;51334.81;;;-145.83;100.00
7730;BME280;3908;52.310;7.230;2022-12-10T08:43:54;51307.41;;;-145.83;100.00
7730;BME280;3908;52.310;7.230;2022-12-10T08:46:41;51309.38;;;-145.83;100.00
7730;BME280;3908;52.310;7.230;2022-12-10T08:49:28;51330.91;;;-145.83;100.00
7730;BME280;3908;52.310;7.230;2022-12-10T08:52:15;51336.75;;;-145.83;100.00
7730;BME280;3908;52.310;7.230;2022-12-10T08:55:03;51311.31;;;-145.83;100.00
7730;BME280;3908;52.310;7.230;2022-12-10T08:57:50;51352.41;;;-145.83;100.00
7730;BME280;3908;52.310;7.230;2022-12-10T09:00:39;51326.97;;;-145.83;100.00
7730;BME280;3908;52.310;7.230;2022-12-10T09:03:26;51403.28;;;-145.83;100.00
7730;BME280;3908;52.310;7.230;2022-12-10T09:06:27;51336.75;;;-145.83;100.00
7730;BME280;3908;52.310;7.230;2022-12-10T09:09:15;51346.53;;;-145.83;100.00
7730;BME280;3908;52.310;7.230;2022-12-10T09:12:05;51362.19;;;-145.83;100.00
7730;BME280;3908;52.310;7.230;2022-12-10T09:14:53;51342.63;;;-145.83;100.00
7730;BME280;3908;52.310;7.230;2022-12-10T09:17:43;51379.81;;;-145.83;100.00
7730;BME280;3908;52.310;7.230;2022-12-10T09:20:30;51346.53;;;-145.83;100.00
7730;BME280;3908;52.310;7.230;2022-12-10T09:23:17;51399.38;;;-145.83;100.00
7730;BME280;3908;52.310;7.230;2022-12-10T09:26:05;51332.84;;;-145.83;100.00
7730;BME280;3908;52.310;7.230;2022-12-10T09:28:53;51371.97;;;-145.83;100.00
7730;BME280;3908;52.310;7.230;2022-12-10T09:31:41;51368.06;;;-145.83;100.00
7730;BME280;3908;52.310;7.230;2022-12-10T09:34:29;51407.19;;;-145.83;100.00
7730;BME280;3908;52.310;7.230;2022-12-10T09:37:16;51370.03;;;-145.83;100.00
7730;BME280;3908;52.310;7.230;2022-12-10T09:40:04;51364.16;;;-145.83;100.00
7730;BME280;3908;52.310;7.230;2022-12-10T09:42:56;51362.19;;;-145.83;100.00
7730;BME280;3908;52.310;7.230;2022-12-10T09:45:54;51395.44;;;-145.83;100.00
7730;BME280;3908;52.310;7.230;2022-12-10T09:48:54;51375.88;;;-145.83;100.00
7730;BME280;3908;52.310;7.230;2022-12-10T09:51:48;51356.31;;;-145.83;100.00
7730;BME280;3908;52.310;7.230;2022-12-10T09:54:40;51405.22;;;-145.83;100.00
7730;BME280;3908;52.310;7.230;2022-12-10T09:57:31;51366.09;;;-145.83;100.00
7730;BME280;3908;52.310;7.230;2022-12-10T10:00:22;51381.75;;;-145.83;100.00
7730;BME280;3908;52.310;7.230;2022-12-10T10:03:13;51399.38;;;-145.83;100.00
7730;BME280;3908;52.310;7.230;2022-12-10T10:06:03;51381.75;;;-145.83;100.00
7730;BME280;3908;52.310;7.230;2022-12-10T10:08:53;51399.38;;;-145.83;100.00
7730;BME280;3908;52.310;7.230;2022-12-10T10:11:57;51371.97;;;-145.83;100.00
7730;BME280;3908;52.310;7.230;2022-12-10T10:14:44;51403.28;;;-145.83;100.00
7730;BME280;3908;52.310;7.230;2022-12-10T10:17:34;51387.63;;;-145.83;100.00
7730;BME280;3908;52.310;7.230;2022-12-10T10:20:22;51352.41;;;-145.83;100.00
7730;BME280;3908;52.310;7.230;2022-12-10T10:23:12;51416.97;;;-145.83;100.00
7730;BME280;3908;52.310;7.230;2022-12-10T10:26:02;51370.03;;;-145.83;100.00
7730;BME280;3908;52.310;7.230;2022-12-10T10:28:53;51440.44;;;-145.83;100.00
7730;BME280;3908;52.310;7.230;2022-12-10T10:31:42;51358.28;;;-145.83;100.00
7730;BME280;3908;52.310;7.230;2022-12-10T10:34:29;51362.19;;;-145.83;100.00
7730;BME280;3908;52.310;7.230;2022-12-10T10:37:20;51387.63;;;-145.83;100.00
7730;BME280;3908;52.310;7.230;2022-12-10T10:40:21;51387.63;;;-145.83;100.00
7730;BME280;3908;52.310;7.230;2022-12-10T10:43:15;51368.06;;;-145.83;100.00
7730;BME280;3908;52.310;7.230;2022-12-10T10:46:10;51397.41;;;-145.83;100.00
7730;BME280;3908;52.310;7.230;2022-12-10T10:49:14;51411.09;;;-145.83;100.00
7730;BME280;3908;52.310;7.230;2022-12-10T10:52:15;51416.97;;;-145.83;100.00
7730;BME280;3908;52.310;7.230;2022-12-10T10:55:03;51385.66;;;-145.83;100.00
7730;BME280;3908;52.310;7.230;2022-12-10T10:57:51;51381.75;;;-145.83;100.00
7730;BME280;3908;52.310;7.230;2022-12-10T11:00:40;51373.94;;;-145.83;100.00
7730;BME280;3908;52.310;7.230;2022-12-10T11:03:34;51389.59;;;-145.83;100.00
7730;BME280;3908;52.310;7.230;2022-12-10T11:06:23;51409.16;;;-145.83;100.00
7730;BME280;3908;52.310;7.230;2022-12-10T11:09:19;51389.59;;;-145.83;100.00
7730;BME280;3908;52.310;7.230;2022-12-10T11:12:23;51370.03;;;-145.83;100.00
7730;BME280;3908;52.310;7.230;2022-12-10T11:15:33;51381.75;;;-145.83;100.00
7730;BME280;3908;52.310;7.230;2022-12-10T11:18:30;51370.03;;;-145.83;100.00
7730;BME280;3908;52.310;7.230;2022-12-10T11:21:19;51387.63;;;-145.83;100.00
7730;BME280;3908;52.310;7.230;2022-12-10T11:24:17;51387.63;;;-145.83;100.00
7730;BME280;3908;52.310;7.230;2022-12-10T11:27:17;51403.28;;;-145.83;100.00
7730;BME280;3908;52.310;7.230;2022-12-10T11:30:10;51371.97;;;-145.83;100.00
7730;BME280;3908;52.310;7.230;2022-12-10T11:33:17;51364.16;;;-145.83;100.00
7730;BME280;3908;52.310;7.230;2022-12-10T11:36:18;51399.38;;;-145.83;100.00
7730;BME280;3908;52.310;7.230;2022-12-10T11:39:29;51397.41;;;-145.83;100.00
7730;BME280;3908;52.310;7.230;2022-12-10T11:42:40;51381.75;;;-145.83;100.00
7730;BME280;3908;52.310;7.230;2022-12-10T11:45:52;51385.66;;;-145.83;100.00
7730;BME280;3908;52.310;7.230;2022-12-10T11:48:55;51360.22;;;-145.83;100.00
7730;BME280;3908;52.310;7.230;2022-12-10T11:51:52;51409.16;;;-145.83;100.00
7730;BME280;3908;52.310;7.230;2022-12-10T11:55:00;51356.31;;;-145.83;100.00
7730;BME280;3908;52.310;7.230;2022-12-10T11:57:58;51379.81;;;-145.83;100.00
7730;BME280;3908;52.310;7.230;2022-12-10T12:00:55;51371.97;;;-145.83;100.00
7730;BME280;3908;52.310;7.230;2022-12-10T12:03:58;51407.19;;;-145.83;100.00
7730;BME280;3908;52.310;7.230;2022-12-10T12:06:59;51385.66;;;-145.83;100.00
7730;BME280;3908;52.310;7.230;2022-12-10T12:10:14;51409.16;;;-145.83;100.00
7730;BME280;3908;52.310;7.230;2022-12-10T12:13:09;51350.47;;;-145.83;100.00
7730;BME280;3908;52.310;7.230;2022-12-10T12:16:01;51397.41;;;-145.83;100.00
7730;BME280;3908;52.310;7.230;2022-12-10T12:18:55;51387.63;;;-145.83;100.00
7730;BME280;3908;52.310;7.230;2022-12-10T12:21:47;51381.75;;;-145.83;100.00
7730;BME280;3908;52.310;7.230;2022-12-10T12:24:40;51407.19;;;-145.83;100.00
7730;BME280;3908;52.310;7.230;2022-12-10T12:27:33;51405.22;;;-145.83;100.00
7730;BME280;3908;52.310;7.230;2022-12-10T12:30:22;51379.81;;;-145.83;100.00
7730;BME280;3908;52.310;7.230;2022-12-10T12:33:11;51401.31;;;-145.83;100.00
7730;BME280;3908;52.310;7.230;2022-12-10T12:36:05;51395.44;;;-145.83;100.00
7730;BME280;3908;52.310;7.230;2022-12-10T12:39:02;51411.09;;;-145.83;100.00
7730;BME280;3908;52.310;7.230;2022-12-10T12:42:11;51385.66;;;-145.83;100.00
7730;BME280;3908;52.310;7.230;2022-12-10T12:45:03;51344.59;;;-145.83;100.00
7730;BME280;3908;52.310;7.230;2022-12-10T12:48:00;51389.59;;;-145.83;100.00
7730;BME280;3908;52.310;7.230;2022-12-10T12:50:51;51409.16;;;-145.83;100.00
7730;BME280;3908;52.310;7.230;2022-12-10T12:53:40;51416.97;;;-145.83;100.00
7730;BME280;3908;52.310;7.230;2022-12-10T12:56:41;51411.09;;;-145.83;100.00
7730;BME280;3908;52.310;7.230;2022-12-10T12:59:51;51385.66;;;-145.83;100.00
7730;BME280;3908;52.310;7.230;2022-12-10T13:03:05;51377.84;;;-145.83;100.00
7730;BME280;3908;52.310;7.230;2022-12-10T13:05:55;51391.53;;;-145.83;100.00
7730;BME280;3908;52.310;7.230;2022-12-10T13:08:43;51342.63;;;-145.83;100.00
7730;BME280;3908;52.310;7.230;2022-12-10T13:11:33;51381.75;;;-145.83;100.00
7730;BME280;3908;52.310;7.230;2022-12-10T13:14:33;51420.88;;;-145.83;100.00
7730;BME280;3908;52.310;7.230;2022-12-10T13:17:28;51385.66;;;-145.83;100.00
7730;BME280;3908;52.310;7.230;2022-12-10T13:20:31;51368.06;;;-145.83;100.00
7730;BME280;3908;52.310;7.230;2022-12-10T13:23:30;51385.66;;;-145.83;100.00
7730;BME280;3908;52.310;7.230;2022-12-10T13:26:25;51371.97;;;-145.83;100.00
7730;BME280;3908;52.310;7.230;2022-12-10T13:29:23;51375.88;;;-145.83;100.00
7730;BME280;3908;52.310;7.230;2022-12-10T13:32:14;51368.06;;;-145.83;100.00
7730;BME280;3908;52.310;7.230;2022-12-10T13:35:29;51405.22;;;-145.83;100.00
7730;BME280;3908;52.310;7.230;2022-12-10T13:38:19;51366.09;;;-145.83;100.00
7730;BME280;3908;52.310;7.230;2022-12-10T13:41:08;51371.97;;;-145.83;100.00
7730;BME280;3908;52.310;7.230;2022-12-10T13:44:33;51405.22;;;-145.83;100.00
7730;BME280;3908;52.310;7.230;2022-12-10T13:47:25;51385.66;;;-145.83;100.00
7730;BME280;3908;52.310;7.230;2022-12-10T13:50:17;51416.97;;;-145.83;100.00
7730;BME280;3908;52.310;7.230;2022-12-10T13:53:14;51334.81;;;-145.83;100.00
7730;BME280;3908;52.310;7.230;2022-12-10T13:56:09;51362.19;;;-145.83;100.00
7730;BME280;3908;52.310;7.230;2022-12-10T13:59:16;51350.47;;;-145.83;100.00
7730;BME280;3908;52.310;7.230;2022-12-10T14:02:21;51342.63;;;-145.83;100.00
7730;BME280;3908;52.310;7.230;2022-12-10T14:05:27;51358.28;;;-145.83;100.00
7730;BME280;3908;52.310;7.230;2022-12-10T14:08:26;51368.06;;;-145.83;100.00
7730;BME280;3908;52.310;7.230;2022-12-10T14:11:20;51418.94;;;-145.83;100.00
7730;BME280;3908;52.310;7.230;2022-12-10T14:14:11;51348.50;;;-145.83;100.00
7730;BME280;3908;52.310;7.230;2022-12-10T14:17:01;51375.88;;;-145.83;100.00
7730;BME280;3908;52.310;7.230;2022-12-10T14:19:50;51377.84;;;-145.83;100.00
7730;BME280;3908;52.310;7.230;2022-12-10T14:22:46;51342.63;;;-145.83;100.00
7730;BME280;3908;52.310;7.230;2022-12-10T14:25:41;51354.38;;;-145.83;100.00
7730;BME280;3908;52.310;7.230;2022-12-10T14:28:29;51383.72;;;-145.83;100.00
7730;BME280;3908;52.310;7.230;2022-12-10T14:31:21;51379.81;;;-145.83;100.00
7730;BME280;3908;52.310;7.230;2022-12-10T14:34:14;51350.47;;;-145.83;100.00
7730;BME280;3908;52.310;7.230;2022-12-10T14:37:03;51381.75;;;-145.83;100.00
7730;BME280;3908;52.310;7.230;2022-12-10T14:39:52;51356.31;;;-145.83;100.00
7730;BME280;3908;52.310;7.230;2022-12-10T14:42:41;51366.09;;;-145.83;100.00
7730;BME280;3908;52.310;7.230;2022-12-10T14:45:31;51383.72;;;-145.83;100.00
7730;BME280;3908;52.310;7.230;2022-12-10T14:48:24;51383.72;;;-145.83;100.00
7730;BME280;3908;52.310;7.230;2022-12-10T14:51:14;51371.97;;;-145.83;100.00
7730;BME280;3908;52.310;7.230;2022-12-10T14:54:01;51366.09;;;-145.83;100.00
7730;BME280;3908;52.310;7.230;2022-12-10T14:56:48;51356.31;;;-145.83;100.00